Time;durP1;ratioP1;P1;durP2;ratioP2;P2;SDS_P1;SDS_P2;PMS_P1;PMS_P2;Temp;Humidity;BMP_temperature;BMP_pressure;BME280_temperature;BME280_humidity;BME280_pressure;Samples;Min_cycle;Max_cycle;Signal;HPM_P1;HPM_P2
2022/11/18 00:00:24;;;;;;;215.40;163.57;;;;;;;;;;6275438;28;20056;-85
2022/11/18 00:03:25;;;;;;;213.80;160.40;;;;;;;;;;6277625;28;20049;-85
2022/11/18 00:06:28;;;;;;;211.93;159.70;;;;;;;;;;6290268;28;20143;-85
2022/11/18 00:09:30;;;;;;;216.35;163.18;;;;;;;;;;6279099;28;20095;-84
2022/11/18 00:16:03;;;;;;;186.02;138.48;;;;;;;;;;6276755;28;20052;-83
2022/11/18 00:19:06;;;;;;;180.68;133.48;;;;;;;;;;6277201;28;20415;-87
2022/11/18 00:22:12;;;;;;;196.32;143.95;;;;;;;;;;6274574;28;20502;-85
2022/11/18 00:25:13;;;;;;;201.18;153.32;;;;;;;;;;6276135;28;20037;-86
2022/11/18 00:28:15;;;;;;;193.77;146.98;;;;;;;;;;6259091;28;20048;-85
2022/11/18 00:31:17;;;;;;;188.13;142.80;;;;;;;;;;6254903;28;20098;-87
2022/11/18 00:34:18;;;;;;;186.95;138.65;;;;;;;;;;6276812;28;20054;-86
2022/11/18 00:37:20;;;;;;;185.90;139.35;;;;;;;;;;6275803;28;20037;-85
2022/11/18 00:40:22;;;;;;;180.43;136.93;;;;;;;;;;6279273;28;20048;-86
2022/11/18 00:43:23;;;;;;;180.13;136.43;;;;;;;;;;6278318;28;20413;-85
2022/11/18 00:46:25;;;;;;;197.63;149.88;;;;;;;;;;6276796;28;20091;-85
2022/11/18 00:49:27;;;;;;;205.73;153.13;;;;;;;;;;6275711;28;20120;-85
2022/11/18 00:52:28;;;;;;;205.95;156.35;;;;;;;;;;6275314;28;20120;-85
2022/11/18 00:55:30;;;;;;;211.68;156.55;;;;;;;;;;6279968;28;20049;-85
2022/11/18 00:58:35;;;;;;;213.60;159.40;;;;;;;;;;6275754;28;20062;-85
2022/11/18 01:01:37;;;;;;;208.23;155.10;;;;;;;;;;6260219;28;20139;-86
2022/11/18 01:04:39;;;;;;;210.95;157.20;;;;;;;;;;6278163;28;20048;-86
2022/11/18 01:07:40;;;;;;;212.63;156.25;;;;;;;;;;6298072;28;20099;-85
2022/11/18 01:10:42;;;;;;;215.90;161.35;;;;;;;;;;6280968;28;20041;-86
2022/11/18 01:13:44;;;;;;;212.30;161.57;;;;;;;;;;6296308;28;20070;-85
2022/11/18 01:16:50;;;;;;;209.77;157.27;;;;;;;;;;6283290;28;20833;-86
2022/11/18 01:19:51;;;;;;;209.15;157.35;;;;;;;;;;6282685;28;20047;-86
2022/11/18 01:22:53;;;;;;;222.25;168.55;;;;;;;;;;6265173;28;20055;-86
2022/11/18 01:25:55;;;;;;;233.40;177.23;;;;;;;;;;6282468;28;20155;-87
2022/11/18 01:28:56;;;;;;;222.18;170.10;;;;;;;;;;6284499;28;20056;-87
2022/11/18 01:31:58;;;;;;;208.52;158.48;;;;;;;;;;6286305;28;20103;-86
2022/11/18 01:35:19;;;;;;;243.70;174.30;;;;;;;;;;6285464;28;20089;-85
2022/11/18 01:38:21;;;;;;;255.55;182.32;;;;;;;;;;6281755;28;20048;-86
2022/11/18 01:41:25;;;;;;;247.75;190.80;;;;;;;;;;6285581;28;20056;-86
2022/11/18 01:44:56;;;;;;;240.23;186.18;;;;;;;;;;6300109;28;20040;-86
2022/11/18 01:48:04;;;;;;;235.40;181.93;;;;;;;;;;6278921;28;20048;-86
2022/11/18 01:51:15;;;;;;;242.35;184.57;;;;;;;;;;6287707;28;20419;-85
2022/11/18 01:54:32;;;;;;;243.75;190.63;;;;;;;;;;6294983;28;20174;-86
2022/11/18 01:57:34;;;;;;;249.73;192.48;;;;;;;;;;6292605;28;20056;-86
2022/11/18 02:00:36;;;;;;;241.25;185.32;;;;;;;;;;6278635;28;20086;-86
2022/11/18 02:03:38;;;;;;;237.77;176.48;;;;;;;;;;6283776;28;20087;-85
2022/11/18 02:06:42;;;;;;;220.93;169.00;;;;;;;;;;6275046;28;20502;-86
2022/11/18 02:09:44;;;;;;;229.13;174.10;;;;;;;;;;6279322;28;20048;-86
2022/11/18 02:12:47;;;;;;;230.27;175.70;;;;;;;;;;6238995;28;20041;-85
2022/11/18 02:16:14;;;;;;;234.40;177.07;;;;;;;;;;6262440;28;20037;-85
2022/11/18 02:19:37;;;;;;;218.63;170.35;;;;;;;;;;6276923;28;20094;-85
2022/11/18 02:22:51;;;;;;;218.15;169.93;;;;;;;;;;6266429;28;20052;-85
2022/11/18 02:26:19;;;;;;;197.02;148.63;;;;;;;;;;6281201;28;20049;-87
2022/11/18 02:29:29;;;;;;;240.65;178.10;;;;;;;;;;6275390;28;20040;-84
2022/11/18 02:32:47;;;;;;;230.95;176.55;;;;;;;;;;6281420;28;20082;-85
2022/11/18 02:35:55;;;;;;;230.90;176.95;;;;;;;;;;6262454;28;20226;-86
2022/11/18 02:39:06;;;;;;;241.65;183.93;;;;;;;;;;6261491;28;20524;-84
2022/11/18 02:42:11;;;;;;;235.60;180.20;;;;;;;;;;6277523;28;20067;-85
2022/11/18 02:45:17;;;;;;;228.45;176.95;;;;;;;;;;6293312;28;20098;-84
2022/11/18 02:48:23;;;;;;;241.13;179.20;;;;;;;;;;6297359;28;20105;-85
2022/11/18 02:51:31;;;;;;;226.20;162.20;;;;;;;;;;6279210;28;20037;-84
2022/11/18 02:54:35;;;;;;;235.80;177.80;;;;;;;;;;6279945;28;20049;-83
2022/11/18 02:57:39;;;;;;;225.50;166.63;;;;;;;;;;6270677;28;20071;-83
2022/11/18 03:00:41;;;;;;;228.93;177.27;;;;;;;;;;6277317;28;20215;-83
2022/11/18 03:03:42;;;;;;;230.20;173.68;;;;;;;;;;6278447;28;20056;-83
2022/11/18 03:07:01;;;;;;;225.35;158.95;;;;;;;;;;6275934;28;20041;-83
2022/11/18 03:10:03;;;;;;;230.38;174.95;;;;;;;;;;6294396;28;20075;-83
2022/11/18 03:13:14;;;;;;;229.20;178.88;;;;;;;;;;6279360;28;20071;-84
2022/11/18 03:16:24;;;;;;;227.70;169.45;;;;;;;;;;6275308;28;20040;-83
2022/11/18 03:19:48;;;;;;;249.52;179.60;;;;;;;;;;6294463;28;20550;-83
2022/11/18 03:23:19;;;;;;;225.95;167.95;;;;;;;;;;6285397;28;20139;-83
2022/11/18 03:26:30;;;;;;;216.32;162.45;;;;;;;;;;6276213;28;20522;-83
2022/11/18 03:29:37;;;;;;;209.68;157.25;;;;;;;;;;6277317;28;20044;-83
2022/11/18 03:32:44;;;;;;;216.50;156.00;;;;;;;;;;6278901;28;20049;-83
2022/11/18 03:35:49;;;;;;;215.73;158.93;;;;;;;;;;6273532;28;20048;-84
2022/11/18 03:38:54;;;;;;;241.70;177.95;;;;;;;;;;6278240;28;20230;-84
2022/11/18 03:42:10;;;;;;;250.35;193.52;;;;;;;;;;6292191;28;20040;-85
2022/11/18 03:45:25;;;;;;;256.08;198.20;;;;;;;;;;6272817;28;20040;-84
2022/11/18 03:48:40;;;;;;;260.23;200.48;;;;;;;;;;6274189;28;20047;-85
2022/11/18 03:51:47;;;;;;;263.08;204.52;;;;;;;;;;6278387;28;20051;-84
2022/11/18 03:54:51;;;;;;;276.30;208.05;;;;;;;;;;6294773;28;20056;-84
2022/11/18 03:58:09;;;;;;;263.83;200.70;;;;;;;;;;6277648;28;20471;-84
2022/11/18 04:01:18;;;;;;;262.15;194.25;;;;;;;;;;6263675;28;20491;-83
2022/11/18 04:04:22;;;;;;;246.63;191.63;;;;;;;;;;6270549;28;20052;-87
2022/11/18 04:07:37;;;;;;;249.98;194.13;;;;;;;;;;6276426;28;20052;-85
2022/11/18 04:10:49;;;;;;;252.02;192.27;;;;;;;;;;6269843;28;21539;-85
2022/11/18 04:13:51;;;;;;;258.48;194.00;;;;;;;;;;6276038;28;20203;-86
2022/11/18 04:16:53;;;;;;;257.38;198.95;;;;;;;;;;6254194;28;20404;-85
2022/11/18 04:19:54;;;;;;;249.75;185.55;;;;;;;;;;6270987;28;20052;-84
2022/11/18 04:22:56;;;;;;;235.35;176.52;;;;;;;;;;6276056;28;20044;-84
2022/11/18 04:25:58;;;;;;;251.27;178.93;;;;;;;;;;6290229;28;20089;-83
2022/11/18 04:29:00;;;;;;;241.07;178.32;;;;;;;;;;6278100;28;20504;-85
2022/11/18 04:32:02;;;;;;;220.85;160.55;;;;;;;;;;6261069;28;20276;-86
2022/11/18 04:35:04;;;;;;;228.93;162.55;;;;;;;;;;6254002;28;141406;-86
2022/11/18 04:38:06;;;;;;;218.25;165.75;;;;;;;;;;6228348;28;20059;-88
2022/11/18 04:41:08;;;;;;;220.50;171.35;;;;;;;;;;6218903;28;20136;-85
2022/11/18 04:44:11;;;;;;;228.45;173.38;;;;;;;;;;6216255;28;20079;-86
2022/11/18 04:47:13;;;;;;;229.35;175.23;;;;;;;;;;6241765;28;20044;-84
2022/11/18 04:50:15;;;;;;;212.82;160.63;;;;;;;;;;6239097;28;20095;-85
2022/11/18 04:53:17;;;;;;;201.65;147.82;;;;;;;;;;6238015;28;20068;-85
2022/11/18 04:56:19;;;;;;;198.00;144.07;;;;;;;;;;6246195;28;20443;-86
2022/11/18 04:59:24;;;;;;;196.68;146.05;;;;;;;;;;6210664;28;20223;-85
2022/11/18 05:02:25;;;;;;;204.13;151.98;;;;;;;;;;6251223;28;20050;-85
2022/11/18 05:05:27;;;;;;;208.02;153.10;;;;;;;;;;6221037;28;20472;-85
2022/11/18 05:08:30;;;;;;;207.13;154.32;;;;;;;;;;6262323;28;20120;-85
2022/11/18 05:14:52;;;;;;;215.38;157.90;;;;;;;;;;6251615;28;20155;-86
2022/11/18 05:17:54;;;;;;;204.93;151.65;;;;;;;;;;6263626;28;20042;-85
2022/11/18 05:20:55;;;;;;;221.95;152.18;;;;;;;;;;6251620;28;20096;-85
2022/11/18 05:24:01;;;;;;;209.07;150.20;;;;;;;;;;6230677;28;20045;-86
2022/11/18 05:27:03;;;;;;;211.80;158.60;;;;;;;;;;6235847;28;20045;-85
2022/11/18 05:30:05;;;;;;;218.27;163.48;;;;;;;;;;6211082;28;20075;-85
2022/11/18 05:33:07;;;;;;;211.32;156.27;;;;;;;;;;6224920;28;20044;-86
2022/11/18 05:36:13;;;;;;;222.98;163.38;;;;;;;;;;6224099;28;20045;-85
2022/11/18 05:39:14;;;;;;;224.05;168.30;;;;;;;;;;6211931;28;20095;-85
2022/11/18 05:45:38;;;;;;;212.75;155.27;;;;;;;;;;6230549;28;20172;-85
2022/11/18 05:48:40;;;;;;;210.20;157.10;;;;;;;;;;6244535;28;20049;-86
2022/11/18 05:51:41;;;;;;;208.70;159.90;;;;;;;;;;6238414;28;20050;-85
2022/11/18 05:54:49;;;;;;;212.23;160.68;;;;;;;;;;6222138;28;20053;-85
2022/11/18 05:57:50;;;;;;;213.95;163.50;;;;;;;;;;6238960;28;20041;-86
2022/11/18 06:00:55;;;;;;;209.27;160.35;;;;;;;;;;6232229;28;20110;-86
2022/11/18 06:03:58;;;;;;;217.93;163.40;;;;;;;;;;6244318;28;20123;-84
2022/11/18 06:07:14;;;;;;;215.82;164.45;;;;;;;;;;6224851;28;20052;-87
2022/11/18 06:10:19;;;;;;;214.25;165.38;;;;;;;;;;6268109;28;20388;-84
2022/11/18 06:13:28;;;;;;;200.30;152.20;;;;;;;;;;6230204;28;20835;-85
2022/11/18 06:16:32;;;;;;;213.13;156.40;;;;;;;;;;6231811;28;20111;-85
2022/11/18 06:19:41;;;;;;;219.05;163.07;;;;;;;;;;6208799;28;20048;-83
2022/11/18 06:22:43;;;;;;;215.13;161.88;;;;;;;;;;6248040;28;20538;-85
2022/11/18 06:25:47;;;;;;;210.52;158.02;;;;;;;;;;6235020;28;20054;-85
2022/11/18 06:28:54;;;;;;;204.75;154.18;;;;;;;;;;6220393;28;20548;-85
2022/11/18 06:31:56;;;;;;;207.57;155.98;;;;;;;;;;6227755;28;20415;-84
2022/11/18 06:34:58;;;;;;;184.32;138.32;;;;;;;;;;6255347;28;20141;-85
2022/11/18 06:37:59;;;;;;;203.63;155.80;;;;;;;;;;6208412;28;20049;-84
2022/11/18 06:41:01;;;;;;;212.25;159.35;;;;;;;;;;6227282;28;20049;-85
2022/11/18 06:44:03;;;;;;;209.00;159.60;;;;;;;;;;6235241;28;20045;-84
2022/11/18 06:47:05;;;;;;;223.00;167.05;;;;;;;;;;6207915;28;20515;-83
2022/11/18 06:50:07;;;;;;;219.40;167.80;;;;;;;;;;6216927;28;20050;-83
2022/11/18 06:53:08;;;;;;;224.07;169.75;;;;;;;;;;6250615;28;20052;-84
2022/11/18 06:56:12;;;;;;;220.38;167.13;;;;;;;;;;6248615;28;20503;-83
2022/11/18 06:59:20;;;;;;;216.77;163.10;;;;;;;;;;6233182;28;20045;-83
2022/11/18 07:02:21;;;;;;;213.95;162.23;;;;;;;;;;6234530;28;20052;-84
2022/11/18 07:05:23;;;;;;;208.77;157.70;;;;;;;;;;6233770;28;20759;-83
2022/11/18 07:08:25;;;;;;;207.60;156.70;;;;;;;;;;6239636;28;20080;-83
2022/11/18 07:11:26;;;;;;;217.55;164.60;;;;;;;;;;6218129;28;20186;-83
2022/11/18 07:14:29;;;;;;;225.85;173.10;;;;;;;;;;6233209;28;20473;-82
2022/11/18 07:17:31;;;;;;;227.25;172.55;;;;;;;;;;6206680;28;20046;-82
2022/11/18 07:20:33;;;;;;;237.55;174.82;;;;;;;;;;6227431;28;20046;-82
2022/11/18 07:23:35;;;;;;;219.68;166.88;;;;;;;;;;6248528;28;20106;-82
2022/11/18 07:26:36;;;;;;;216.77;160.02;;;;;;;;;;6255966;28;20054;-82
2022/11/18 07:29:38;;;;;;;210.02;156.90;;;;;;;;;;6231240;28;20037;-83
2022/11/18 07:32:40;;;;;;;207.82;152.38;;;;;;;;;;6231721;28;20182;-84
2022/11/18 07:35:41;;;;;;;206.02;153.13;;;;;;;;;;6221018;28;20050;-83
2022/11/18 07:38:44;;;;;;;202.85;152.25;;;;;;;;;;6229689;28;20050;-83
2022/11/18 07:41:45;;;;;;;203.60;150.68;;;;;;;;;;6230916;28;20053;-83
2022/11/18 07:44:47;;;;;;;199.18;146.32;;;;;;;;;;6230021;28;20049;-83
2022/11/18 07:47:49;;;;;;;206.43;151.60;;;;;;;;;;6230728;28;20044;-83
2022/11/18 07:50:51;;;;;;;198.88;144.93;;;;;;;;;;6243955;28;20190;-83
2022/11/18 07:53:53;;;;;;;198.10;143.85;;;;;;;;;;6228432;28;20038;-82
2022/11/18 07:56:55;;;;;;;195.23;141.95;;;;;;;;;;6226950;28;20492;-83
2022/11/18 07:59:56;;;;;;;195.40;137.90;;;;;;;;;;6249383;28;20042;-83
2022/11/18 08:02:58;;;;;;;194.98;137.77;;;;;;;;;;6238045;28;20055;-82
2022/11/18 08:06:01;;;;;;;206.00;144.90;;;;;;;;;;6222573;28;20045;-83
2022/11/18 08:09:04;;;;;;;197.27;141.98;;;;;;;;;;6233286;28;20526;-83
2022/11/18 08:12:06;;;;;;;197.05;140.82;;;;;;;;;;6232836;28;20412;-84
2022/11/18 08:15:08;;;;;;;207.02;147.85;;;;;;;;;;6255106;28;20136;-83
2022/11/18 08:18:09;;;;;;;205.60;146.25;;;;;;;;;;6213860;28;20046;-83
2022/11/18 08:21:16;;;;;;;216.75;156.55;;;;;;;;;;6237115;28;21481;-83
2022/11/18 08:24:18;;;;;;;217.75;156.10;;;;;;;;;;6244910;28;20517;-83
2022/11/18 08:27:21;;;;;;;228.45;163.98;;;;;;;;;;6229694;28;20504;-83
2022/11/18 08:30:23;;;;;;;226.13;162.40;;;;;;;;;;6230426;28;20144;-83
2022/11/18 08:33:25;;;;;;;231.10;164.05;;;;;;;;;;6222293;28;20083;-83
2022/11/18 08:36:30;;;;;;;230.60;165.98;;;;;;;;;;6242734;28;20092;-83
2022/11/18 08:39:32;;;;;;;228.07;164.57;;;;;;;;;;6231420;28;20049;-83
2022/11/18 08:42:33;;;;;;;244.10;173.93;;;;;;;;;;6251527;28;20163;-82
2022/11/18 08:45:37;;;;;;;244.70;174.57;;;;;;;;;;6214715;28;20500;-83
2022/11/18 08:48:38;;;;;;;;;;;;;;;;;;6248919;28;20618;-83
2022/11/18 08:51:43;;;;;;;237.73;176.15;;;;;;;;;;6233934;28;20375;-83
2022/11/18 08:54:44;;;;;;;248.32;180.27;;;;;;;;;;6230578;28;20061;-84
2022/11/18 08:57:46;;;;;;;244.73;176.95;;;;;;;;;;6239648;28;21432;-84
2022/11/18 09:00:48;;;;;;;249.57;179.05;;;;;;;;;;6232688;28;20095;-83
2022/11/18 09:03:50;;;;;;;262.58;187.32;;;;;;;;;;6238546;28;20057;-83
2022/11/18 09:06:52;;;;;;;256.33;184.27;;;;;;;;;;6234003;28;20048;-83
2022/11/18 09:09:54;;;;;;;257.27;185.95;;;;;;;;;;6229941;28;20050;-83
2022/11/18 09:12:55;;;;;;;251.45;181.30;;;;;;;;;;6246906;28;20120;-83
2022/11/18 09:16:17;;;;;;;255.27;186.25;;;;;;;;;;6238791;28;20045;-83
2022/11/18 09:19:25;;;;;;;258.08;185.52;;;;;;;;;;6214525;28;20913;-83
2022/11/18 09:22:47;;;;;;;258.55;184.27;;;;;;;;;;6203962;28;20085;-83
2022/11/18 09:26:03;;;;;;;258.73;181.57;;;;;;;;;;6232927;28;20046;-83
2022/11/18 09:29:04;;;;;;;256.05;179.77;;;;;;;;;;6240670;28;20037;-84
2022/11/18 09:32:06;;;;;;;265.13;185.40;;;;;;;;;;6236836;28;20226;-84
2022/11/18 09:35:08;;;;;;;305.00;219.98;;;;;;;;;;6229981;28;20099;-84
2022/11/18 09:38:10;;;;;;;248.98;174.15;;;;;;;;;;6255283;28;20088;-83
2022/11/18 09:41:37;;;;;;;254.15;177.20;;;;;;;;;;6240083;28;20259;-84
2022/11/18 09:45:01;;;;;;;258.40;179.82;;;;;;;;;;6250012;28;20050;-84
2022/11/18 09:48:16;;;;;;;256.83;179.23;;;;;;;;;;6269231;28;20053;-83
2022/11/18 09:51:17;;;;;;;261.77;181.70;;;;;;;;;;6248265;28;20112;-83
2022/11/18 09:54:32;;;;;;;256.13;171.38;;;;;;;;;;6239449;28;20423;-83
2022/11/18 09:57:38;;;;;;;260.15;177.00;;;;;;;;;;6221174;28;20060;-83
2022/11/18 10:00:42;;;;;;;253.80;173.07;;;;;;;;;;6228943;28;20373;-83
2022/11/18 10:03:44;;;;;;;260.52;174.48;;;;;;;;;;6214166;28;20055;-84
2022/11/18 10:06:47;;;;;;;245.88;164.70;;;;;;;;;;6249261;28;20641;-83
2022/11/18 10:09:53;;;;;;;247.82;165.40;;;;;;;;;;6221608;28;20046;-84
2022/11/18 10:13:07;;;;;;;258.10;173.00;;;;;;;;;;6222464;28;20071;-83
2022/11/18 10:16:27;;;;;;;255.88;169.88;;;;;;;;;;6238969;28;20041;-84
2022/11/18 10:19:41;;;;;;;254.88;168.65;;;;;;;;;;6216299;28;20677;-83
2022/11/18 10:23:05;;;;;;;260.00;169.85;;;;;;;;;;6239009;28;20084;-84
2022/11/18 10:26:11;;;;;;;259.13;173.18;;;;;;;;;;6215998;28;20052;-83
2022/11/18 10:29:13;;;;;;;265.30;177.10;;;;;;;;;;6233421;28;20041;-83
2022/11/18 10:32:17;;;;;;;261.50;173.48;;;;;;;;;;6233351;28;20049;-84
2022/11/18 10:35:24;;;;;;;263.88;175.65;;;;;;;;;;6230174;28;20157;-84
2022/11/18 10:38:26;;;;;;;253.82;168.23;;;;;;;;;;6231097;28;20064;-84
2022/11/18 10:41:27;;;;;;;255.48;166.60;;;;;;;;;;6232921;28;20053;-83
2022/11/18 10:44:39;;;;;;;264.27;174.75;;;;;;;;;;6219734;28;20179;-83
2022/11/18 10:47:41;;;;;;;261.95;172.27;;;;;;;;;;6235222;28;20095;-84
2022/11/18 10:50:49;;;;;;;260.17;167.05;;;;;;;;;;6222679;28;20060;-83
2022/11/18 10:54:07;;;;;;;271.15;177.68;;;;;;;;;;6252000;28;20099;-83
2022/11/18 10:57:23;;;;;;;267.95;176.60;;;;;;;;;;6237555;28;20175;-84
2022/11/18 11:00:34;;;;;;;284.67;188.38;;;;;;;;;;6246049;28;20569;-84
2022/11/18 11:03:39;;;;;;;293.45;195.52;;;;;;;;;;6229379;28;20131;-83
2022/11/18 11:06:41;;;;;;;294.13;196.60;;;;;;;;;;6221324;28;20139;-81
2022/11/18 11:09:44;;;;;;;304.52;204.50;;;;;;;;;;6230353;28;20512;-83
2022/11/18 11:12:50;;;;;;;261.50;171.73;;;;;;;;;;6229811;28;20041;-83
2022/11/18 11:15:55;;;;;;;252.40;167.35;;;;;;;;;;6239702;28;20092;-82
2022/11/18 11:18:59;;;;;;;246.65;164.93;;;;;;;;;;6220922;28;20049;-82
2022/11/18 11:22:01;;;;;;;303.38;209.13;;;;;;;;;;6225830;28;20102;-82
2022/11/18 11:25:11;;;;;;;309.58;216.68;;;;;;;;;;6240962;28;20056;-83
2022/11/18 11:28:23;;;;;;;293.02;199.23;;;;;;;;;;6216147;28;20491;-82
2022/11/18 11:31:40;;;;;;;276.10;188.77;;;;;;;;;;6246100;28;20657;-82
2022/11/18 11:35:09;;;;;;;279.50;192.30;;;;;;;;;;6237577;28;20053;-81
2022/11/18 11:38:36;;;;;;;279.92;191.70;;;;;;;;;;6227343;28;20435;-82
2022/11/18 11:41:52;;;;;;;298.80;201.88;;;;;;;;;;6250253;28;20629;-82
2022/11/18 11:45:18;;;;;;;286.75;197.25;;;;;;;;;;6230519;28;20175;-83
2022/11/18 11:48:46;;;;;;;273.85;191.63;;;;;;;;;;6226831;28;20495;-85
2022/11/18 11:51:55;;;;;;;282.20;197.88;;;;;;;;;;6221699;28;20057;-83
2022/11/18 11:55:14;;;;;;;303.77;213.82;;;;;;;;;;6197627;28;20503;-83
2022/11/18 11:58:25;;;;;;;317.02;221.77;;;;;;;;;;6259135;28;20132;-84
2022/11/18 12:01:37;;;;;;;245.32;168.27;;;;;;;;;;6229784;28;20074;-83
2022/11/18 12:04:44;;;;;;;229.00;156.93;;;;;;;;;;6230600;28;20057;-83
2022/11/18 12:07:52;;;;;;;226.07;154.35;;;;;;;;;;6218074;28;20128;-84
2022/11/18 12:11:11;;;;;;;251.10;176.70;;;;;;;;;;6240721;28;20692;-84
2022/11/18 12:14:28;;;;;;;248.98;174.00;;;;;;;;;;6213547;28;20037;-84
2022/11/18 12:17:36;;;;;;;246.25;168.43;;;;;;;;;;6235109;28;20134;-85
2022/11/18 12:20:45;;;;;;;245.15;169.30;;;;;;;;;;6230741;28;20069;-84
2022/11/18 12:24:30;;;;;;;256.02;177.32;;;;;;;;;;6213996;28;20487;-83
2022/11/18 12:27:38;;;;;;;221.10;149.48;;;;;;;;;;6212206;28;20065;-84
2022/11/18 12:30:40;;;;;;;215.55;145.82;;;;;;;;;;6232700;28;20087;-84
2022/11/18 12:33:54;;;;;;;222.43;149.75;;;;;;;;;;6242122;28;20057;-84
2022/11/18 12:36:56;;;;;;;230.50;157.77;;;;;;;;;;6252826;28;20504;-84
2022/11/18 12:39:58;;;;;;;204.63;136.98;;;;;;;;;;6216852;28;20037;-84
2022/11/18 12:46:33;;;;;;;171.82;122.63;;;;;;;;;;6230357;28;20516;-84
2022/11/18 12:49:35;;;;;;;36.63;26.92;;;;;;;;;;6225746;28;20193;-84
2022/11/18 12:52:36;;;;;;;6.32;4.10;;;;;;;;;;6235916;28;20411;-81
2022/11/18 12:55:38;;;;;;;109.47;80.47;;;;;;;;;;6221561;28;20044;-82
2022/11/18 12:58:44;;;;;;;174.13;117.57;;;;;;;;;;6225224;28;20049;-82
2022/11/18 13:01:46;;;;;;;168.65;110.63;;;;;;;;;;6247752;28;20051;-82
2022/11/18 13:05:10;;;;;;;188.32;121.97;;;;;;;;;;6228048;28;20041;-82
2022/11/18 13:08:12;;;;;;;244.68;160.48;;;;;;;;;;6211242;28;20053;-82
2022/11/18 13:18:12;;;;;;;260.50;173.38;;;;;;;;;;6227940;28;20290;-82
2022/11/18 13:24:47;;;;;;;261.60;173.45;;;;;;;;;;6236151;28;20053;-82
2022/11/18 13:28:04;;;;;;;246.48;162.45;;;;;;;;;;6226878;28;20045;-83
2022/11/18 13:31:32;;;;;;;249.95;165.25;;;;;;;;;;6251391;28;20092;-84
2022/11/18 13:34:44;;;;;;;254.95;165.50;;;;;;;;;;6214289;28;20045;-85
2022/11/18 13:37:55;;;;;;;242.85;153.07;;;;;;;;;;6235259;28;20037;-83
2022/11/18 13:41:03;;;;;;;245.43;152.63;;;;;;;;;;6224723;28;20123;-83
2022/11/18 13:44:26;;;;;;;247.18;154.60;;;;;;;;;;6240210;28;20048;-85
2022/11/18 13:47:40;;;;;;;250.97;156.53;;;;;;;;;;6233838;28;20168;-85
2022/11/18 13:50:53;;;;;;;251.10;157.77;;;;;;;;;;6252387;28;20045;-86
2022/11/18 13:53:55;;;;;;;;;;;;;;;;;;6260700;28;20090;-83
2022/11/18 13:56:57;;;;;;;266.05;165.48;;;;;;;;;;6240072;28;19927;-84
2022/11/18 14:00:04;;;;;;;256.95;160.05;;;;;;;;;;6266463;28;20044;-85
2022/11/18 14:03:24;;;;;;;261.50;165.43;;;;;;;;;;6237374;28;20045;-84
2022/11/18 14:06:34;;;;;;;251.88;161.48;;;;;;;;;;6243941;28;20052;-85
2022/11/18 14:09:36;;;;;;;252.45;161.70;;;;;;;;;;6222830;28;20176;-84
2022/11/18 14:12:38;;;;;;;293.92;193.18;;;;;;;;;;6255516;28;20056;-84
2022/11/18 14:15:39;;;;;;;304.67;197.68;;;;;;;;;;6247744;28;20158;-84
2022/11/18 14:18:47;;;;;;;292.17;197.40;;;;;;;;;;6220718;28;20054;-83
2022/11/18 14:21:49;;;;;;;296.00;199.88;;;;;;;;;;6234055;28;20069;-83
2022/11/18 14:25:03;;;;;;;258.65;174.52;;;;;;;;;;6221129;28;20695;-83
2022/11/18 14:28:32;;;;;;;285.95;197.32;;;;;;;;;;6259587;28;20045;-82
2022/11/18 14:31:34;;;;;;;289.80;201.52;;;;;;;;;;6226548;28;20041;-83
2022/11/18 14:34:36;;;;;;;259.38;177.35;;;;;;;;;;6247949;28;20065;-83
2022/11/18 14:37:37;;;;;;;265.60;183.25;;;;;;;;;;6272100;28;20054;-83
2022/11/18 14:40:39;;;;;;;257.38;175.57;;;;;;;;;;6240927;28;20103;-83
2022/11/18 14:43:44;;;;;;;243.25;163.48;;;;;;;;;;6237707;28;20065;-82
2022/11/18 14:46:52;;;;;;;249.93;173.13;;;;;;;;;;6227319;28;20488;-82
2022/11/18 14:49:54;;;;;;;241.30;168.93;;;;;;;;;;6229062;28;20181;-82
2022/11/18 14:52:55;;;;;;;251.55;175.35;;;;;;;;;;6225416;28;20445;-82
2022/11/18 14:56:01;;;;;;;254.52;176.18;;;;;;;;;;6214530;28;20488;-84
2022/11/18 14:59:02;;;;;;;249.15;174.20;;;;;;;;;;6245041;28;20077;-83
2022/11/18 15:02:05;;;;;;;252.15;176.90;;;;;;;;;;6215473;28;20041;-83
2022/11/18 15:05:07;;;;;;;242.30;168.18;;;;;;;;;;6207940;28;20524;-81
2022/11/18 15:08:09;;;;;;;245.82;171.88;;;;;;;;;;6223957;28;20059;-83
2022/11/18 15:11:12;;;;;;;253.52;178.80;;;;;;;;;;6200202;28;20126;-83
2022/11/18 15:14:13;;;;;;;251.93;178.17;;;;;;;;;;6245704;28;20037;-82
2022/11/18 15:17:16;;;;;;;232.60;164.18;;;;;;;;;;6245280;28;20048;-82
2022/11/18 15:20:21;;;;;;;238.10;169.75;;;;;;;;;;6241045;28;20045;-82
2022/11/18 15:23:23;;;;;;;228.63;161.48;;;;;;;;;;6218943;28;20076;-82
2022/11/18 15:26:37;;;;;;;243.95;169.02;;;;;;;;;;6223689;28;20175;-82
2022/11/18 15:29:39;;;;;;;247.88;180.27;;;;;;;;;;6239090;28;20046;-82
2022/11/18 15:32:41;;;;;;;243.73;178.32;;;;;;;;;;6265143;28;20179;-82
2022/11/18 15:35:43;;;;;;;266.85;196.05;;;;;;;;;;6246574;28;20053;-81
2022/11/18 15:38:46;;;;;;;260.77;190.85;;;;;;;;;;6214221;28;20045;-82
2022/11/18 15:41:48;;;;;;;;;;;;;;;;;;6212428;28;20400;-82
2022/11/18 15:44:49;;;;;;;247.65;187.25;;;;;;;;;;6248309;28;19928;-82
2022/11/18 15:47:51;;;;;;;253.02;190.43;;;;;;;;;;6195425;28;20064;-83
2022/11/18 15:50:53;;;;;;;266.33;199.00;;;;;;;;;;6233098;28;20554;-83
2022/11/18 15:53:55;;;;;;;267.75;198.50;;;;;;;;;;6229370;28;20057;-82
2022/11/18 15:56:56;;;;;;;277.40;208.38;;;;;;;;;;6209773;28;20424;-83
2022/11/18 15:59:58;;;;;;;276.67;209.02;;;;;;;;;;6241355;28;20041;-83
2022/11/18 16:03:00;;;;;;;281.05;215.32;;;;;;;;;;6234296;28;20045;-83
2022/11/18 16:06:01;;;;;;;286.77;216.15;;;;;;;;;;6215038;28;20048;-83
2022/11/18 16:09:05;;;;;;;312.15;229.05;;;;;;;;;;6219309;28;20140;-82
2022/11/18 16:15:42;;;;;;;279.38;219.48;;;;;;;;;;6239090;28;20118;-82
2022/11/18 16:18:44;;;;;;;259.58;203.07;;;;;;;;;;6208745;28;20079;-82
2022/11/18 16:21:48;;;;;;;256.13;203.65;;;;;;;;;;6228547;28;20534;-82
2022/11/18 16:24:50;;;;;;;278.15;212.65;;;;;;;;;;6247395;28;20059;-83
2022/11/18 16:27:55;;;;;;;246.52;193.15;;;;;;;;;;6222598;28;20080;-83
2022/11/18 16:34:23;;;;;;;265.85;210.60;;;;;;;;;;6246630;28;20091;-83
2022/11/18 16:37:25;;;;;;;260.55;208.27;;;;;;;;;;6225438;28;20076;-82
2022/11/18 16:40:27;;;;;;;263.23;205.23;;;;;;;;;;6241725;28;20042;-83
2022/11/18 16:43:29;;;;;;;248.50;194.10;;;;;;;;;;6224458;28;20159;-83
2022/11/18 16:46:33;;;;;;;244.38;193.55;;;;;;;;;;6227686;28;20127;-83
2022/11/18 16:49:35;;;;;;;258.65;203.73;;;;;;;;;;6242320;28;20195;-83
2022/11/18 16:52:37;;;;;;;260.08;203.20;;;;;;;;;;6232451;28;20191;-83
2022/11/18 16:55:38;;;;;;;270.70;206.80;;;;;;;;;;6216729;28;20259;-83
2022/11/18 16:58:44;;;;;;;286.38;220.02;;;;;;;;;;6231399;28;20061;-84
2022/11/18 17:01:50;;;;;;;296.15;228.43;;;;;;;;;;6256173;28;20393;-84
2022/11/18 17:04:52;;;;;;;299.42;229.73;;;;;;;;;;6252691;28;20404;-83
2022/11/18 17:07:54;;;;;;;280.80;219.73;;;;;;;;;;6250417;28;20065;-83
2022/11/18 17:10:56;;;;;;;279.58;213.55;;;;;;;;;;6227126;28;20053;-83
2022/11/18 17:13:58;;;;;;;268.60;212.80;;;;;;;;;;6236560;28;20048;-84
2022/11/18 17:17:00;;;;;;;274.58;212.70;;;;;;;;;;6247372;28;20049;-84
2022/11/18 17:20:02;;;;;;;272.83;214.90;;;;;;;;;;6250179;28;20049;-84
2022/11/18 17:23:03;;;;;;;271.45;215.07;;;;;;;;;;6249048;28;20053;-85
2022/11/18 17:26:07;;;;;;;297.25;224.63;;;;;;;;;;6226349;28;20363;-87
2022/11/18 17:29:11;;;;;;;272.60;212.80;;;;;;;;;;6209777;28;20479;-83
2022/11/18 17:32:13;;;;;;;267.17;206.90;;;;;;;;;;6250544;28;20067;-85
2022/11/18 17:35:16;;;;;;;261.63;195.30;;;;;;;;;;6237826;28;20064;-84
2022/11/18 17:38:17;;;;;;;287.25;216.25;;;;;;;;;;6227945;28;20054;-83
2022/11/18 17:44:42;;;;;;;274.37;212.13;;;;;;;;;;6237710;28;20091;-85
2022/11/18 17:47:45;;;;;;;297.40;216.68;;;;;;;;;;6258550;28;20779;-84
2022/11/18 17:50:46;;;;;;;302.63;231.07;;;;;;;;;;6260517;28;20105;-82
2022/11/18 17:53:48;;;;;;;273.73;206.90;;;;;;;;;;6236802;28;20076;-84
2022/11/18 17:56:53;;;;;;;266.17;205.20;;;;;;;;;;6239582;28;20531;-84
2022/11/18 17:59:54;;;;;;;275.55;214.27;;;;;;;;;;6227808;28;20052;-83
2022/11/18 18:02:57;;;;;;;292.23;229.15;;;;;;;;;;6215305;28;20504;-84
2022/11/18 18:06:07;;;;;;;302.63;226.90;;;;;;;;;;6227168;28;20042;-84